sensor_id;sensor_type;location;lat;lon;timestamp;P1;durP1;ratioP1;P2;durP2;ratioP2
11837;SDS011;5978;51.020;6.764;2023-06-22T00:00:29;4.37;;;3.97;;
11837;SDS011;5978;51.020;6.764;2023-06-22T00:02:55;4.83;;;4.33;;
11837;SDS011;5978;51.020;6.764;2023-06-22T00:05:20;5.50;;;4.30;;
11837;SDS011;5978;51.020;6.764;2023-06-22T00:07:46;8.53;;;4.60;;
11837;SDS011;5978;51.020;6.764;2023-06-22T00:10:12;5.00;;;4.00;;
11837;SDS011;5978;51.020;6.764;2023-06-22T00:12:38;5.70;;;4.50;;
11837;SDS011;5978;51.020;6.764;2023-06-22T00:15:04;4.90;;;4.23;;
11837;SDS011;5978;51.020;6.764;2023-06-22T00:17:30;4.47;;;3.70;;
11837;SDS011;5978;51.020;6.764;2023-06-22T00:19:55;6.57;;;4.37;;
11837;SDS011;5978;51.020;6.764;2023-06-22T00:22:23;7.20;;;4.80;;
11837;SDS011;5978;51.020;6.764;2023-06-22T00:24:54;6.33;;;4.90;;
11837;SDS011;5978;51.020;6.764;2023-06-22T00:27:20;4.57;;;4.07;;
11837;SDS011;5978;51.020;6.764;2023-06-22T00:29:46;6.53;;;4.00;;
11837;SDS011;5978;51.020;6.764;2023-06-22T00:32:12;5.03;;;3.87;;
11837;SDS011;5978;51.020;6.764;2023-06-22T00:34:37;5.17;;;4.03;;
11837;SDS011;5978;51.020;6.764;2023-06-22T00:37:03;5.50;;;4.30;;
11837;SDS011;5978;51.020;6.764;2023-06-22T00:39:29;5.00;;;4.50;;
11837;SDS011;5978;51.020;6.764;2023-06-22T00:41:58;5.13;;;4.50;;
11837;SDS011;5978;51.020;6.764;2023-06-22T00:44:24;4.30;;;3.90;;
11837;SDS011;5978;51.020;6.764;2023-06-22T00:46:50;5.63;;;4.47;;
11837;SDS011;5978;51.020;6.764;2023-06-22T00:49:19;5.73;;;4.07;;
11837;SDS011;5978;51.020;6.764;2023-06-22T00:51:45;4.33;;;3.93;;
11837;SDS011;5978;51.020;6.764;2023-06-22T00:54:13;4.70;;;3.60;;
11837;SDS011;5978;51.020;6.764;2023-06-22T00:56:40;5.93;;;4.10;;
11837;SDS011;5978;51.020;6.764;2023-06-22T00:59:06;5.23;;;3.97;;
11837;SDS011;5978;51.020;6.764;2023-06-22T01:01:31;5.10;;;4.27;;
11837;SDS011;5978;51.020;6.764;2023-06-22T01:03:59;4.13;;;3.80;;
11837;SDS011;5978;51.020;6.764;2023-06-22T01:06:29;4.57;;;4.17;;
11837;SDS011;5978;51.020;6.764;2023-06-22T01:09:08;5.13;;;3.77;;
11837;SDS011;5978;51.020;6.764;2023-06-22T01:11:45;5.20;;;4.67;;
11837;SDS011;5978;51.020;6.764;2023-06-22T01:14:19;6.30;;;4.67;;
11837;SDS011;5978;51.020;6.764;2023-06-22T01:16:49;6.47;;;5.00;;
11837;SDS011;5978;51.020;6.764;2023-06-22T01:22:15;4.20;;;3.80;;
11837;SDS011;5978;51.020;6.764;2023-06-22T01:29:40;4.30;;;3.90;;
11837;SDS011;5978;51.020;6.764;2023-06-22T01:32:08;7.20;;;4.20;;
11837;SDS011;5978;51.020;6.764;2023-06-22T01:34:36;5.80;;;4.00;;
11837;SDS011;5978;51.020;6.764;2023-06-22T01:37:05;4.93;;;4.50;;
11837;SDS011;5978;51.020;6.764;2023-06-22T01:39:31;9.73;;;4.43;;
11837;SDS011;5978;51.020;6.764;2023-06-22T01:41:57;6.80;;;4.50;;
11837;SDS011;5978;51.020;6.764;2023-06-22T01:44:25;4.40;;;3.90;;
11837;SDS011;5978;51.020;6.764;2023-06-22T01:46:51;4.23;;;3.83;;
11837;SDS011;5978;51.020;6.764;2023-06-22T01:49:17;6.10;;;4.57;;
11837;SDS011;5978;51.020;6.764;2023-06-22T01:51:44;4.20;;;3.80;;
11837;SDS011;5978;51.020;6.764;2023-06-22T01:54:10;5.00;;;3.93;;
11837;SDS011;5978;51.020;6.764;2023-06-22T01:56:35;4.23;;;3.80;;
11837;SDS011;5978;51.020;6.764;2023-06-22T02:01:43;4.97;;;4.47;;
11837;SDS011;5978;51.020;6.764;2023-06-22T02:04:19;6.77;;;4.43;;
11837;SDS011;5978;51.020;6.764;2023-06-22T02:06:51;6.20;;;4.40;;
11837;SDS011;5978;51.020;6.764;2023-06-22T02:09:21;7.40;;;4.33;;
11837;SDS011;5978;51.020;6.764;2023-06-22T02:11:48;4.23;;;3.83;;
11837;SDS011;5978;51.020;6.764;2023-06-22T02:14:18;5.33;;;4.17;;
11837;SDS011;5978;51.020;6.764;2023-06-22T02:16:45;4.60;;;4.20;;
11837;SDS011;5978;51.020;6.764;2023-06-22T02:19:11;4.20;;;3.80;;
11837;SDS011;5978;51.020;6.764;2023-06-22T02:21:37;7.90;;;4.43;;
11837;SDS011;5978;51.020;6.764;2023-06-22T02:24:03;7.30;;;5.03;;
11837;SDS011;5978;51.020;6.764;2023-06-22T02:26:29;5.03;;;4.53;;
11837;SDS011;5978;51.020;6.764;2023-06-22T02:28:57;4.53;;;4.10;;
11837;SDS011;5978;51.020;6.764;2023-06-22T02:31:22;4.97;;;4.57;;
11837;SDS011;5978;51.020;6.764;2023-06-22T02:33:58;6.20;;;4.50;;
11837;SDS011;5978;51.020;6.764;2023-06-22T02:36:25;4.83;;;4.30;;
11837;SDS011;5978;51.020;6.764;2023-06-22T02:38:53;6.07;;;5.33;;
11837;SDS011;5978;51.020;6.764;2023-06-22T02:41:21;6.10;;;4.00;;
11837;SDS011;5978;51.020;6.764;2023-06-22T02:43:47;6.23;;;4.70;;
11837;SDS011;5978;51.020;6.764;2023-06-22T02:46:13;7.83;;;5.00;;
11837;SDS011;5978;51.020;6.764;2023-06-22T02:48:39;5.40;;;4.87;;
11837;SDS011;5978;51.020;6.764;2023-06-22T02:51:06;7.30;;;5.60;;
11837;SDS011;5978;51.020;6.764;2023-06-22T02:53:32;6.23;;;5.53;;
11837;SDS011;5978;51.020;6.764;2023-06-22T02:55:58;8.00;;;5.43;;
11837;SDS011;5978;51.020;6.764;2023-06-22T02:58:26;7.63;;;5.60;;
11837;SDS011;5978;51.020;6.764;2023-06-22T03:00:52;6.40;;;5.80;;
11837;SDS011;5978;51.020;6.764;2023-06-22T03:03:18;8.57;;;5.10;;
11837;SDS011;5978;51.020;6.764;2023-06-22T03:05:45;6.50;;;4.60;;
11837;SDS011;5978;51.020;6.764;2023-06-22T03:08:10;8.17;;;5.10;;
11837;SDS011;5978;51.020;6.764;2023-06-22T03:10:36;6.47;;;5.93;;
11837;SDS011;5978;51.020;6.764;2023-06-22T03:13:02;6.50;;;5.60;;
11837;SDS011;5978;51.020;6.764;2023-06-22T03:15:28;7.13;;;5.47;;
11837;SDS011;5978;51.020;6.764;2023-06-22T03:17:57;6.70;;;5.73;;
11837;SDS011;5978;51.020;6.764;2023-06-22T03:20:23;7.63;;;5.60;;
11837;SDS011;5978;51.020;6.764;2023-06-22T03:22:50;6.13;;;5.50;;
11837;SDS011;5978;51.020;6.764;2023-06-22T03:25:15;7.33;;;5.93;;
11837;SDS011;5978;51.020;6.764;2023-06-22T03:27:41;6.30;;;5.70;;
11837;SDS011;5978;51.020;6.764;2023-06-22T03:30:09;6.47;;;5.70;;
11837;SDS011;5978;51.020;6.764;2023-06-22T03:32:36;7.07;;;5.63;;
11837;SDS011;5978;51.020;6.764;2023-06-22T03:35:02;7.00;;;5.83;;
11837;SDS011;5978;51.020;6.764;2023-06-22T03:37:28;7.70;;;6.70;;
11837;SDS011;5978;51.020;6.764;2023-06-22T03:39:54;7.30;;;6.20;;
11837;SDS011;5978;51.020;6.764;2023-06-22T03:42:20;7.60;;;6.90;;
11837;SDS011;5978;51.020;6.764;2023-06-22T03:44:46;7.40;;;6.60;;
11837;SDS011;5978;51.020;6.764;2023-06-22T03:47:12;8.70;;;7.00;;
11837;SDS011;5978;51.020;6.764;2023-06-22T03:49:38;6.63;;;6.00;;
11837;SDS011;5978;51.020;6.764;2023-06-22T03:52:04;7.60;;;6.17;;
11837;SDS011;5978;51.020;6.764;2023-06-22T03:54:30;8.63;;;5.97;;
11837;SDS011;5978;51.020;6.764;2023-06-22T03:56:56;6.43;;;5.73;;
11837;SDS011;5978;51.020;6.764;2023-06-22T03:59:22;8.23;;;6.63;;
11837;SDS011;5978;51.020;6.764;2023-06-22T04:01:49;7.87;;;6.43;;
11837;SDS011;5978;51.020;6.764;2023-06-22T04:04:15;12.03;;;7.63;;
11837;SDS011;5978;51.020;6.764;2023-06-22T04:06:42;7.93;;;7.07;;
11837;SDS011;5978;51.020;6.764;2023-06-22T04:09:08;10.23;;;6.43;;
11837;SDS011;5978;51.020;6.764;2023-06-22T04:11:34;9.33;;;7.60;;
11837;SDS011;5978;51.020;6.764;2023-06-22T04:13:59;8.57;;;7.10;;
11837;SDS011;5978;51.020;6.764;2023-06-22T04:16:25;7.83;;;7.03;;
11837;SDS011;5978;51.020;6.764;2023-06-22T04:18:51;8.67;;;6.73;;
11837;SDS011;5978;51.020;6.764;2023-06-22T04:21:17;8.03;;;7.10;;
11837;SDS011;5978;51.020;6.764;2023-06-22T04:23:44;7.57;;;6.80;;
11837;SDS011;5978;51.020;6.764;2023-06-22T04:26:11;9.97;;;7.40;;
11837;SDS011;5978;51.020;6.764;2023-06-22T04:28:37;7.63;;;6.67;;
11837;SDS011;5978;51.020;6.764;2023-06-22T04:31:03;9.07;;;6.80;;
11837;SDS011;5978;51.020;6.764;2023-06-22T04:33:30;7.53;;;6.73;;
11837;SDS011;5978;51.020;6.764;2023-06-22T04:35:56;8.63;;;7.23;;
11837;SDS011;5978;51.020;6.764;2023-06-22T04:38:22;7.60;;;6.87;;
11837;SDS011;5978;51.020;6.764;2023-06-22T04:40:48;8.30;;;7.40;;
11837;SDS011;5978;51.020;6.764;2023-06-22T04:43:14;10.37;;;8.10;;
11837;SDS011;5978;51.020;6.764;2023-06-22T04:45:40;8.70;;;6.93;;
11837;SDS011;5978;51.020;6.764;2023-06-22T04:48:06;8.20;;;6.77;;
11837;SDS011;5978;51.020;6.764;2023-06-22T04:50:31;7.90;;;6.50;;
11837;SDS011;5978;51.020;6.764;2023-06-22T04:52:57;8.10;;;6.40;;
11837;SDS011;5978;51.020;6.764;2023-06-22T04:55:23;8.60;;;6.20;;
11837;SDS011;5978;51.020;6.764;2023-06-22T04:57:50;10.00;;;7.70;;
11837;SDS011;5978;51.020;6.764;2023-06-22T05:00:20;8.50;;;7.67;;
11837;SDS011;5978;51.020;6.764;2023-06-22T05:02:48;8.90;;;7.50;;
11837;SDS011;5978;51.020;6.764;2023-06-22T05:05:14;7.80;;;6.93;;
11837;SDS011;5978;51.020;6.764;2023-06-22T05:07:43;7.63;;;6.83;;
11837;SDS011;5978;51.020;6.764;2023-06-22T05:10:12;10.67;;;8.57;;
11837;SDS011;5978;51.020;6.764;2023-06-22T05:12:38;7.43;;;6.67;;
11837;SDS011;5978;51.020;6.764;2023-06-22T05:15:06;8.53;;;7.53;;
11837;SDS011;5978;51.020;6.764;2023-06-22T05:17:32;7.50;;;6.53;;
11837;SDS011;5978;51.020;6.764;2023-06-22T05:19:58;6.50;;;5.90;;
11837;SDS011;5978;51.020;6.764;2023-06-22T05:22:24;13.63;;;7.63;;
11837;SDS011;5978;51.020;6.764;2023-06-22T05:24:50;8.10;;;7.30;;
11837;SDS011;5978;51.020;6.764;2023-06-22T05:27:15;8.77;;;7.87;;
11837;SDS011;5978;51.020;6.764;2023-06-22T05:29:41;8.97;;;7.53;;
11837;SDS011;5978;51.020;6.764;2023-06-22T05:32:07;8.03;;;7.27;;
11837;SDS011;5978;51.020;6.764;2023-06-22T05:34:33;9.40;;;6.20;;
11837;SDS011;5978;51.020;6.764;2023-06-22T05:36:59;9.87;;;6.63;;
11837;SDS011;5978;51.020;6.764;2023-06-22T05:39:25;8.13;;;7.43;;
11837;SDS011;5978;51.020;6.764;2023-06-22T05:41:51;7.20;;;6.50;;
11837;SDS011;5978;51.020;6.764;2023-06-22T05:44:17;8.10;;;7.03;;
11837;SDS011;5978;51.020;6.764;2023-06-22T05:46:43;8.07;;;7.27;;
11837;SDS011;5978;51.020;6.764;2023-06-22T05:49:12;8.53;;;7.40;;
11837;SDS011;5978;51.020;6.764;2023-06-22T05:51:38;8.17;;;7.37;;
11837;SDS011;5978;51.020;6.764;2023-06-22T05:54:04;9.20;;;7.90;;
11837;SDS011;5978;51.020;6.764;2023-06-22T05:56:30;11.73;;;8.40;;
11837;SDS011;5978;51.020;6.764;2023-06-22T05:58:56;9.90;;;8.60;;
11837;SDS011;5978;51.020;6.764;2023-06-22T06:01:22;9.20;;;8.03;;
11837;SDS011;5978;51.020;6.764;2023-06-22T06:03:47;9.37;;;8.07;;
11837;SDS011;5978;51.020;6.764;2023-06-22T06:06:14;9.27;;;8.33;;
11837;SDS011;5978;51.020;6.764;2023-06-22T06:08:40;10.90;;;9.07;;
11837;SDS011;5978;51.020;6.764;2023-06-22T06:11:06;11.70;;;8.47;;
11837;SDS011;5978;51.020;6.764;2023-06-22T06:13:32;8.37;;;7.40;;
11837;SDS011;5978;51.020;6.764;2023-06-22T06:15:58;7.90;;;7.07;;
11837;SDS011;5978;51.020;6.764;2023-06-22T06:18:24;9.50;;;7.70;;
11837;SDS011;5978;51.020;6.764;2023-06-22T06:20:50;10.83;;;8.10;;
11837;SDS011;5978;51.020;6.764;2023-06-22T06:23:16;8.07;;;7.20;;
11837;SDS011;5978;51.020;6.764;2023-06-22T06:25:42;11.13;;;7.60;;
11837;SDS011;5978;51.020;6.764;2023-06-22T06:28:07;9.57;;;8.57;;
11837;SDS011;5978;51.020;6.764;2023-06-22T06:30:33;11.17;;;8.47;;
11837;SDS011;5978;51.020;6.764;2023-06-22T06:33:02;9.63;;;6.73;;
11837;SDS011;5978;51.020;6.764;2023-06-22T06:35:28;9.77;;;7.80;;
11837;SDS011;5978;51.020;6.764;2023-06-22T06:37:53;9.50;;;8.20;;
11837;SDS011;5978;51.020;6.764;2023-06-22T06:40:19;9.07;;;8.30;;
11837;SDS011;5978;51.020;6.764;2023-06-22T06:42:46;9.60;;;8.23;;
11837;SDS011;5978;51.020;6.764;2023-06-22T06:45:20;9.50;;;8.70;;
11837;SDS011;5978;51.020;6.764;2023-06-22T06:47:50;10.53;;;9.43;;
11837;SDS011;5978;51.020;6.764;2023-06-22T06:50:17;11.83;;;10.83;;
11837;SDS011;5978;51.020;6.764;2023-06-22T06:52:43;12.80;;;9.80;;
11837;SDS011;5978;51.020;6.764;2023-06-22T06:55:09;10.70;;;9.80;;
11837;SDS011;5978;51.020;6.764;2023-06-22T06:57:37;11.00;;;10.00;;
11837;SDS011;5978;51.020;6.764;2023-06-22T07:00:06;11.13;;;10.10;;
11837;SDS011;5978;51.020;6.764;2023-06-22T07:02:37;13.00;;;11.70;;
11837;SDS011;5978;51.020;6.764;2023-06-22T07:05:05;12.07;;;11.00;;
11837;SDS011;5978;51.020;6.764;2023-06-22T07:07:31;13.90;;;11.97;;
11837;SDS011;5978;51.020;6.764;2023-06-22T07:09:57;15.03;;;13.40;;
11837;SDS011;5978;51.020;6.764;2023-06-22T07:12:23;14.10;;;12.07;;
11837;SDS011;5978;51.020;6.764;2023-06-22T07:14:49;12.77;;;11.57;;
11837;SDS011;5978;51.020;6.764;2023-06-22T07:17:16;12.40;;;10.80;;
11837;SDS011;5978;51.020;6.764;2023-06-22T07:19:41;13.40;;;12.17;;
11837;SDS011;5978;51.020;6.764;2023-06-22T07:22:07;13.73;;;12.40;;
11837;SDS011;5978;51.020;6.764;2023-06-22T07:24:33;14.80;;;11.67;;
11837;SDS011;5978;51.020;6.764;2023-06-22T07:26:59;10.80;;;9.70;;
11837;SDS011;5978;51.020;6.764;2023-06-22T07:29:25;11.60;;;9.87;;
11837;SDS011;5978;51.020;6.764;2023-06-22T07:31:52;11.40;;;10.40;;
11837;SDS011;5978;51.020;6.764;2023-06-22T07:34:18;12.23;;;11.00;;
11837;SDS011;5978;51.020;6.764;2023-06-22T07:36:44;13.63;;;10.80;;
11837;SDS011;5978;51.020;6.764;2023-06-22T07:39:11;12.63;;;11.33;;
11837;SDS011;5978;51.020;6.764;2023-06-22T07:41:38;13.50;;;11.03;;
11837;SDS011;5978;51.020;6.764;2023-06-22T07:44:06;13.63;;;11.20;;
11837;SDS011;5978;51.020;6.764;2023-06-22T07:46:32;12.70;;;11.50;;
11837;SDS011;5978;51.020;6.764;2023-06-22T07:48:58;15.70;;;14.10;;
11837;SDS011;5978;51.020;6.764;2023-06-22T07:51:24;13.90;;;12.57;;
11837;SDS011;5978;51.020;6.764;2023-06-22T07:53:50;16.03;;;14.53;;
11837;SDS011;5978;51.020;6.764;2023-06-22T07:56:16;15.70;;;13.93;;
11837;SDS011;5978;51.020;6.764;2023-06-22T07:58:45;15.33;;;13.77;;
11837;SDS011;5978;51.020;6.764;2023-06-22T08:01:12;17.37;;;15.53;;
11837;SDS011;5978;51.020;6.764;2023-06-22T08:03:41;16.70;;;14.97;;
11837;SDS011;5978;51.020;6.764;2023-06-22T08:06:07;19.30;;;17.30;;
11837;SDS011;5978;51.020;6.764;2023-06-22T08:08:34;20.93;;;18.80;;
11837;SDS011;5978;51.020;6.764;2023-06-22T08:11:01;16.87;;;15.37;;
11837;SDS011;5978;51.020;6.764;2023-06-22T08:13:28;15.57;;;14.03;;
11837;SDS011;5978;51.020;6.764;2023-06-22T08:15:54;14.43;;;12.50;;
11837;SDS011;5978;51.020;6.764;2023-06-22T08:18:20;13.70;;;12.40;;
11837;SDS011;5978;51.020;6.764;2023-06-22T08:20:45;13.37;;;12.13;;
11837;SDS011;5978;51.020;6.764;2023-06-22T08:23:11;13.67;;;12.40;;
11837;SDS011;5978;51.020;6.764;2023-06-22T08:25:37;13.10;;;11.77;;
11837;SDS011;5978;51.020;6.764;2023-06-22T08:28:03;14.30;;;12.80;;
11837;SDS011;5978;51.020;6.764;2023-06-22T08:30:29;11.70;;;10.60;;
11837;SDS011;5978;51.020;6.764;2023-06-22T08:32:55;12.50;;;11.40;;
11837;SDS011;5978;51.020;6.764;2023-06-22T08:35:24;11.13;;;10.10;;
11837;SDS011;5978;51.020;6.764;2023-06-22T08:37:50;12.60;;;11.43;;
11837;SDS011;5978;51.020;6.764;2023-06-22T08:40:20;13.00;;;11.80;;
11837;SDS011;5978;51.020;6.764;2023-06-22T08:42:47;10.90;;;9.80;;
11837;SDS011;5978;51.020;6.764;2023-06-22T08:45:13;9.73;;;8.93;;
11837;SDS011;5978;51.020;6.764;2023-06-22T08:47:39;10.93;;;9.60;;
11837;SDS011;5978;51.020;6.764;2023-06-22T08:50:06;11.23;;;10.13;;
11837;SDS011;5978;51.020;6.764;2023-06-22T08:52:34;11.93;;;9.50;;
11837;SDS011;5978;51.020;6.764;2023-06-22T08:55:00;10.27;;;9.27;;
11837;SDS011;5978;51.020;6.764;2023-06-22T08:57:26;8.93;;;8.10;;
11837;SDS011;5978;51.020;6.764;2023-06-22T08:59:52;11.80;;;9.67;;
11837;SDS011;5978;51.020;6.764;2023-06-22T09:02:18;13.17;;;8.47;;
11837;SDS011;5978;51.020;6.764;2023-06-22T09:04:45;13.17;;;9.80;;
11837;SDS011;5978;51.020;6.764;2023-06-22T09:07:11;9.20;;;8.30;;
11837;SDS011;5978;51.020;6.764;2023-06-22T09:09:37;8.10;;;7.50;;
11837;SDS011;5978;51.020;6.764;2023-06-22T09:12:03;12.27;;;8.10;;
11837;SDS011;5978;51.020;6.764;2023-06-22T09:14:29;10.20;;;8.77;;
11837;SDS011;5978;51.020;6.764;2023-06-22T09:16:55;9.83;;;8.83;;
11837;SDS011;5978;51.020;6.764;2023-06-22T09:19:20;10.03;;;8.00;;
11837;SDS011;5978;51.020;6.764;2023-06-22T09:21:46;8.00;;;7.30;;
11837;SDS011;5978;51.020;6.764;2023-06-22T09:24:12;8.90;;;8.00;;
11837;SDS011;5978;51.020;6.764;2023-06-22T09:26:38;7.97;;;7.13;;
11837;SDS011;5978;51.020;6.764;2023-06-22T09:29:05;10.33;;;8.17;;
11837;SDS011;5978;51.020;6.764;2023-06-22T09:31:31;7.63;;;7.03;;
11837;SDS011;5978;51.020;6.764;2023-06-22T09:33:57;13.27;;;8.23;;
11837;SDS011;5978;51.020;6.764;2023-06-22T09:36:22;8.83;;;8.03;;
11837;SDS011;5978;51.020;6.764;2023-06-22T09:38:49;10.40;;;8.70;;
11837;SDS011;5978;51.020;6.764;2023-06-22T09:41:23;8.70;;;7.90;;
11837;SDS011;5978;51.020;6.764;2023-06-22T09:43:49;11.93;;;9.33;;
11837;SDS011;5978;51.020;6.764;2023-06-22T09:46:16;10.00;;;8.53;;
11837;SDS011;5978;51.020;6.764;2023-06-22T09:48:42;10.47;;;9.37;;
11837;SDS011;5978;51.020;6.764;2023-06-22T09:51:08;9.97;;;9.07;;
11837;SDS011;5978;51.020;6.764;2023-06-22T09:53:34;9.30;;;8.47;;
11837;SDS011;5978;51.020;6.764;2023-06-22T09:56:00;9.27;;;8.47;;
11837;SDS011;5978;51.020;6.764;2023-06-22T09:58:26;9.43;;;8.60;;
11837;SDS011;5978;51.020;6.764;2023-06-22T10:00:52;13.00;;;9.13;;
11837;SDS011;5978;51.020;6.764;2023-06-22T10:03:19;10.10;;;9.10;;
11837;SDS011;5978;51.020;6.764;2023-06-22T10:05:45;10.90;;;9.90;;
11837;SDS011;5978;51.020;6.764;2023-06-22T10:08:11;9.93;;;9.13;;
11837;SDS011;5978;51.020;6.764;2023-06-22T10:10:37;10.93;;;10.03;;
11837;SDS011;5978;51.020;6.764;2023-06-22T10:13:08;10.40;;;9.40;;
11837;SDS011;5978;51.020;6.764;2023-06-22T10:15:35;9.30;;;8.50;;
11837;SDS011;5978;51.020;6.764;2023-06-22T10:18:01;10.50;;;9.50;;
11837;SDS011;5978;51.020;6.764;2023-06-22T10:20:27;11.30;;;10.33;;
11837;SDS011;5978;51.020;6.764;2023-06-22T10:22:53;9.00;;;8.30;;
11837;SDS011;5978;51.020;6.764;2023-06-22T10:25:19;11.10;;;10.13;;
11837;SDS011;5978;51.020;6.764;2023-06-22T10:27:46;16.23;;;10.67;;
11837;SDS011;5978;51.020;6.764;2023-06-22T10:30:12;11.90;;;10.80;;
11837;SDS011;5978;51.020;6.764;2023-06-22T10:32:39;14.53;;;12.90;;
11837;SDS011;5978;51.020;6.764;2023-06-22T10:35:05;14.13;;;12.63;;
11837;SDS011;5978;51.020;6.764;2023-06-22T10:37:31;16.17;;;13.97;;
11837;SDS011;5978;51.020;6.764;2023-06-22T10:39:56;13.50;;;12.10;;
11837;SDS011;5978;51.020;6.764;2023-06-22T10:42:22;16.57;;;12.40;;
11837;SDS011;5978;51.020;6.764;2023-06-22T10:44:47;15.23;;;13.63;;
11837;SDS011;5978;51.020;6.764;2023-06-22T10:47:13;15.53;;;13.90;;
11837;SDS011;5978;51.020;6.764;2023-06-22T10:49:39;15.77;;;14.17;;
11837;SDS011;5978;51.020;6.764;2023-06-22T10:52:07;18.10;;;14.33;;
11837;SDS011;5978;51.020;6.764;2023-06-22T10:54:34;17.40;;;15.57;;
11837;SDS011;5978;51.020;6.764;2023-06-22T10:57:00;18.70;;;15.93;;
11837;SDS011;5978;51.020;6.764;2023-06-22T10:59:26;21.73;;;15.77;;
11837;SDS011;5978;51.020;6.764;2023-06-22T11:01:53;18.63;;;16.70;;
11837;SDS011;5978;51.020;6.764;2023-06-22T11:04:20;20.17;;;16.53;;
11837;SDS011;5978;51.020;6.764;2023-06-22T11:06:46;23.47;;;16.13;;
11837;SDS011;5978;51.020;6.764;2023-06-22T11:09:12;20.80;;;16.90;;
11837;SDS011;5978;51.020;6.764;2023-06-22T11:11:43;18.90;;;16.47;;
11837;SDS011;5978;51.020;6.764;2023-06-22T11:14:10;18.73;;;16.83;;
11837;SDS011;5978;51.020;6.764;2023-06-22T11:16:35;23.20;;;16.13;;
11837;SDS011;5978;51.020;6.764;2023-06-22T11:19:01;19.93;;;17.37;;
11837;SDS011;5978;51.020;6.764;2023-06-22T11:21:28;20.40;;;18.17;;
11837;SDS011;5978;51.020;6.764;2023-06-22T11:23:53;20.70;;;17.57;;
11837;SDS011;5978;51.020;6.764;2023-06-22T11:26:19;19.60;;;16.70;;
11837;SDS011;5978;51.020;6.764;2023-06-22T11:28:46;21.33;;;18.90;;
11837;SDS011;5978;51.020;6.764;2023-06-22T11:31:12;16.40;;;14.80;;
11837;SDS011;5978;51.020;6.764;2023-06-22T11:33:37;19.07;;;17.03;;
11837;SDS011;5978;51.020;6.764;2023-06-22T11:36:03;21.83;;;16.53;;
11837;SDS011;5978;51.020;6.764;2023-06-22T11:38:29;18.53;;;16.60;;
11837;SDS011;5978;51.020;6.764;2023-06-22T11:40:55;21.70;;;16.60;;
11837;SDS011;5978;51.020;6.764;2023-06-22T11:43:22;17.80;;;15.33;;
11837;SDS011;5978;51.020;6.764;2023-06-22T11:45:48;18.17;;;15.40;;
11837;SDS011;5978;51.020;6.764;2023-06-22T11:48:13;17.50;;;15.70;;
11837;SDS011;5978;51.020;6.764;2023-06-22T11:50:39;18.33;;;16.63;;
11837;SDS011;5978;51.020;6.764;2023-06-22T11:53:05;17.03;;;15.43;;
11837;SDS011;5978;51.020;6.764;2023-06-22T11:55:30;16.80;;;15.17;;
11837;SDS011;5978;51.020;6.764;2023-06-22T11:57:56;18.30;;;16.60;;
11837;SDS011;5978;51.020;6.764;2023-06-22T12:00:25;18.70;;;16.77;;
11837;SDS011;5978;51.020;6.764;2023-06-22T12:02:51;26.43;;;19.20;;
11837;SDS011;5978;51.020;6.764;2023-06-22T12:05:18;24.90;;;18.90;;
11837;SDS011;5978;51.020;6.764;2023-06-22T12:07:45;21.33;;;17.50;;
11837;SDS011;5978;51.020;6.764;2023-06-22T12:10:11;20.30;;;18.23;;
11837;SDS011;5978;51.020;6.764;2023-06-22T12:12:36;19.87;;;17.97;;
11837;SDS011;5978;51.020;6.764;2023-06-22T12:15:02;18.83;;;17.00;;
11837;SDS011;5978;51.020;6.764;2023-06-22T12:17:29;20.23;;;18.33;;
11837;SDS011;5978;51.020;6.764;2023-06-22T12:19:55;22.77;;;19.60;;
11837;SDS011;5978;51.020;6.764;2023-06-22T12:22:20;19.80;;;17.77;;
11837;SDS011;5978;51.020;6.764;2023-06-22T12:24:46;21.20;;;19.37;;
11837;SDS011;5978;51.020;6.764;2023-06-22T12:27:12;22.03;;;20.03;;
11837;SDS011;5978;51.020;6.764;2023-06-22T12:29:37;24.80;;;22.40;;
11837;SDS011;5978;51.020;6.764;2023-06-22T12:32:03;23.07;;;20.70;;
11837;SDS011;5978;51.020;6.764;2023-06-22T12:34:29;22.67;;;20.50;;
11837;SDS011;5978;51.020;6.764;2023-06-22T12:36:54;22.63;;;20.43;;
11837;SDS011;5978;51.020;6.764;2023-06-22T12:39:20;27.20;;;21.60;;
11837;SDS011;5978;51.020;6.764;2023-06-22T12:41:46;24.20;;;21.53;;
11837;SDS011;5978;51.020;6.764;2023-06-22T12:44:11;24.53;;;22.03;;
11837;SDS011;5978;51.020;6.764;2023-06-22T12:46:37;28.07;;;25.33;;
11837;SDS011;5978;51.020;6.764;2023-06-22T12:49:03;25.47;;;23.10;;
11837;SDS011;5978;51.020;6.764;2023-06-22T12:51:30;28.20;;;25.17;;
11837;SDS011;5978;51.020;6.764;2023-06-22T12:53:56;17.90;;;16.23;;
11837;SDS011;5978;51.020;6.764;2023-06-22T12:56:22;18.97;;;17.17;;
11837;SDS011;5978;51.020;6.764;2023-06-22T12:58:47;15.93;;;14.43;;
11837;SDS011;5978;51.020;6.764;2023-06-22T13:01:13;16.03;;;14.43;;
11837;SDS011;5978;51.020;6.764;2023-06-22T13:03:39;11.17;;;10.10;;
11837;SDS011;5978;51.020;6.764;2023-06-22T13:06:04;11.97;;;10.93;;
11837;SDS011;5978;51.020;6.764;2023-06-22T13:08:30;12.40;;;11.20;;
11837;SDS011;5978;51.020;6.764;2023-06-22T13:10:55;12.33;;;11.03;;
11837;SDS011;5978;51.020;6.764;2023-06-22T13:13:23;13.07;;;11.77;;
11837;SDS011;5978;51.020;6.764;2023-06-22T13:15:55;12.97;;;11.57;;
11837;SDS011;5978;51.020;6.764;2023-06-22T13:18:21;14.50;;;12.53;;
11837;SDS011;5978;51.020;6.764;2023-06-22T13:20:46;14.60;;;13.10;;
11837;SDS011;5978;51.020;6.764;2023-06-22T13:23:12;15.27;;;13.87;;
11837;SDS011;5978;51.020;6.764;2023-06-22T13:25:38;14.53;;;13.20;;
11837;SDS011;5978;51.020;6.764;2023-06-22T13:28:04;16.17;;;13.60;;
11837;SDS011;5978;51.020;6.764;2023-06-22T13:30:30;15.13;;;13.70;;
11837;SDS011;5978;51.020;6.764;2023-06-22T13:32:56;20.50;;;14.87;;
11837;SDS011;5978;51.020;6.764;2023-06-22T13:35:22;15.07;;;13.50;;
11837;SDS011;5978;51.020;6.764;2023-06-22T13:37:48;15.60;;;14.20;;
11837;SDS011;5978;51.020;6.764;2023-06-22T13:40:14;13.03;;;11.63;;
11837;SDS011;5978;51.020;6.764;2023-06-22T13:42:39;15.73;;;13.87;;
11837;SDS011;5978;51.020;6.764;2023-06-22T13:45:05;14.60;;;13.30;;
11837;SDS011;5978;51.020;6.764;2023-06-22T13:47:31;15.90;;;14.30;;
11837;SDS011;5978;51.020;6.764;2023-06-22T13:49:57;14.30;;;12.90;;
11837;SDS011;5978;51.020;6.764;2023-06-22T13:52:23;15.83;;;13.73;;
11837;SDS011;5978;51.020;6.764;2023-06-22T13:54:49;15.60;;;14.00;;
11837;SDS011;5978;51.020;6.764;2023-06-22T13:57:14;15.10;;;13.57;;
11837;SDS011;5978;51.020;6.764;2023-06-22T13:59:40;15.73;;;14.23;;
11837;SDS011;5978;51.020;6.764;2023-06-22T14:02:05;15.83;;;14.10;;
11837;SDS011;5978;51.020;6.764;2023-06-22T14:04:31;14.03;;;12.83;;
11837;SDS011;5978;51.020;6.764;2023-06-22T14:06:57;14.50;;;13.20;;
11837;SDS011;5978;51.020;6.764;2023-06-22T14:09:23;16.90;;;15.40;;
11837;SDS011;5978;51.020;6.764;2023-06-22T14:11:49;16.80;;;15.30;;
11837;SDS011;5978;51.020;6.764;2023-06-22T14:14:14;17.90;;;16.10;;
11837;SDS011;5978;51.020;6.764;2023-06-22T14:16:40;17.80;;;16.20;;
11837;SDS011;5978;51.020;6.764;2023-06-22T14:19:06;19.20;;;17.37;;
11837;SDS011;5978;51.020;6.764;2023-06-22T14:21:31;23.23;;;18.60;;
11837;SDS011;5978;51.020;6.764;2023-06-22T14:23:57;20.20;;;17.87;;
11837;SDS011;5978;51.020;6.764;2023-06-22T14:26:22;17.80;;;16.20;;
11837;SDS011;5978;51.020;6.764;2023-06-22T14:28:48;18.73;;;16.90;;
11837;SDS011;5978;51.020;6.764;2023-06-22T14:31:16;18.63;;;16.83;;
11837;SDS011;5978;51.020;6.764;2023-06-22T14:33:46;18.40;;;16.50;;
11837;SDS011;5978;51.020;6.764;2023-06-22T14:36:13;16.80;;;15.17;;
11837;SDS011;5978;51.020;6.764;2023-06-22T14:38:39;16.60;;;15.20;;
11837;SDS011;5978;51.020;6.764;2023-06-22T14:41:05;17.00;;;15.37;;
11837;SDS011;5978;51.020;6.764;2023-06-22T14:43:30;16.30;;;14.60;;
11837;SDS011;5978;51.020;6.764;2023-06-22T14:45:56;17.00;;;15.30;;
11837;SDS011;5978;51.020;6.764;2023-06-22T14:48:21;15.87;;;14.20;;
11837;SDS011;5978;51.020;6.764;2023-06-22T14:50:47;15.50;;;13.77;;
11837;SDS011;5978;51.020;6.764;2023-06-22T14:53:12;14.87;;;13.23;;